Flight Information

DEPARTURE
SAN DIEGO, CA
Elevation:
16
Runways:
9/27 - 9400x200 - ASPH-CONC-E
ATIS:
134.8 619-298-0997
Clearance Delivery:
125.9
Ground:
123.9
Tower:
LINDBERGH TOWER 118.3
DESTINATION
LAS VEGAS, NV
Elevation:
2181
TPA:
3181 (est.)
Runways:
8R/26L - 10526x150 - CONC-E
8L/26R - 14515x150 - CONC-G
1R/19L - 9771x150 - CONC-G
1L/19R - 8988x150 - CONC-G
ATIS:
132.4 702-736-0950
Tower:
LAS VEGAS TOWER 119.9
Ground:
121.9 (West of Rwy 01R-19L) 121.1 (East of Rwy 01R-19L)


224.7 NM26° True-13° Var12° HDG

Flight Plan:
(click to file on line)

1. Type
2. Aircraft Identification
3. Aircraft Type / Special Equipment
4. True Airspeed
kts
5. Departure Airport
(ICAO code)
6. Arriving Airport
(ICAO code)
7. Cruising Altitude
ft
8. Alternate Airport
(ICAO code)
9. Route of Flight
10. Remarks


00:00:00 Departure ATIS: Destination ATIS:

Clearance Limit:
Route:
Altitude: Expect in minutes
Frequency:
Transponder: (7500 Hijack / 7600 Lost Comms / 7700 Emergency)


KSAN 181251Z 35003KT 10SM OVC013 22/18 A2992 RMK AO2 SLP132 T02220183
Time: 2022-08-18T12:51:00Z
1660829116
Winds: 350 @ 3 kts
Visibility: 10.0 sm
Clouds (AGL): OVC 1300
Temperature: 22.2 C
Dew Point: 18.3 C
Pressure: 29.920275 in Hgbr

KLAS 181256Z 36006KT 10SM SCT130 BKN200 31/15 A2993 RMK AO2 SLP105 ACC OHD AND ALQDS T03060150
Time: 2022-08-18T12:56:00Z
1660829116
Winds: 360 @ 6 kts
Visibility: 10.0 sm
Clouds (AGL): SCT 13000
BKN 20000
Temperature: 30.6 C
Dew Point: 15.0 C
Pressure: 29.929134 in Hgbr


Notes:

Data extracted from FAA Digital Chart Supplement. Effective: 0901Z Thursday, 27 JAN 2022 to 0900z Thursday, 24 MAR 2022
Current ATIS data is provided courtisy of PilotEdge.